Terminal Aerodrome Forecast
Issued by NWS

Home | Current Version | Previous Version | Text Only | Print | Product List | Glossary On
Versions: 1 2 3 4 5 6 7 8 9 10 11 12 13 14 15
000
FTUS43 KMQT 051125
TAFIWD
TAF
KIWD 051125Z 0512/0612 20008KT P6SM BKN200
     FM051500 20012G20KT P6SM SCT200
     FM060200 20010KT P6SM SCT080 BKN200 WS010/20035KT
     FM060900 19009KT 6SM -SHRA BR SCT025 OVC040
      AMD LTD TO CLD VIS AND WIND=

USA.gov is the U.S. government's official web portal to all federal, state and local government web resources and services.